Time,TemperatureF,DewpointF,PressureIn,WindDirection,WindDirectionDegrees,WindSpeedMPH,WindSpeedGustMPH,Humidity,HourlyPrecipIn,Conditions,Clouds,dailyrainin,SolarRadiationWatts/m^2,SoftwareType,DateUTC
2013-11-24 00:02:00,36.0,28.0,-100.00,NE,38,5.0,8.0,72,0.00,,,0.09,0.000000,,2013-11-24 06:02:00,
2013-11-24 00:42:00,35.0,27.0,-100.00,NE,46,6.0,9.0,72,0.00,,,0.08,0.000000,,2013-11-24 06:42:00,
2013-11-24 00:52:00,35.0,27.0,-100.00,NE,46,6.0,9.0,72,0.00,,,0.08,0.000000,,2013-11-24 06:52:00,
2013-11-24 01:02:00,35.0,27.0,-100.00,NE,46,6.0,9.0,72,0.00,,,0.08,0.000000,,2013-11-24 07:02:00,
2013-11-24 01:42:00,35.0,24.0,-100.00,NE,44,5.0,11.0,65,0.00,,,0.08,0.000000,,2013-11-24 07:42:00,
2013-11-24 01:52:00,35.0,24.0,-100.00,NE,44,5.0,11.0,65,0.00,,,0.08,0.000000,,2013-11-24 07:52:00,
2013-11-24 02:01:00,35.0,24.0,-100.00,NE,44,5.0,11.0,65,0.00,,,0.08,0.000000,,2013-11-24 08:01:00,
2013-11-24 02:42:00,34.0,25.0,-100.00,NE,34,4.0,7.0,68,0.00,,,0.08,0.000000,,2013-11-24 08:42:00,
2013-11-24 02:53:00,34.0,25.0,-100.00,NE,34,4.0,7.0,68,0.00,,,0.08,0.000000,,2013-11-24 08:53:00,
2013-11-24 03:02:00,34.0,25.0,-100.00,NE,34,4.0,7.0,68,0.00,,,0.08,0.000000,,2013-11-24 09:02:00,
2013-11-24 03:43:00,35.0,26.0,-100.00,North,2,6.0,11.0,70,0.00,,,0.08,0.000000,,2013-11-24 09:43:00,
2013-11-24 03:54:00,35.0,26.0,-100.00,North,2,6.0,11.0,70,0.00,,,0.08,0.000000,,2013-11-24 09:54:00,
2013-11-24 04:03:00,35.0,26.0,-100.00,North,2,6.0,11.0,70,0.00,,,0.08,0.000000,,2013-11-24 10:03:00,
2013-11-24 04:43:00,34.0,26.0,-100.00,NE,36,9.0,15.0,71,0.00,,,0.08,0.000000,,2013-11-24 10:43:00,
2013-11-24 04:53:00,34.0,26.0,-100.00,NE,36,9.0,15.0,71,0.00,,,0.08,0.000000,,2013-11-24 10:53:00,
2013-11-24 05:03:00,34.0,26.0,-100.00,NE,36,9.0,15.0,71,0.00,,,0.08,0.000000,,2013-11-24 11:03:00,
2013-11-24 05:43:00,34.0,25.0,-100.00,NNE,33,8.0,17.0,69,0.00,,,0.08,0.000000,,2013-11-24 11:43:00,
2013-11-24 05:53:00,34.0,25.0,-100.00,NNE,33,8.0,17.0,69,0.00,,,0.08,0.000000,,2013-11-24 11:53:00,
2013-11-24 06:02:00,34.0,25.0,-100.00,NNE,33,8.0,17.0,69,0.00,,,0.08,0.000000,,2013-11-24 12:02:00,
2013-11-24 06:42:00,34.0,25.0,-100.00,NNE,30,9.0,16.0,68,0.00,,,0.07,0.000000,,2013-11-24 12:42:00,
2013-11-24 06:53:00,34.0,25.0,-100.00,NNE,30,9.0,16.0,68,0.00,,,0.07,0.000000,,2013-11-24 12:53:00,
2013-11-24 07:02:00,34.0,25.0,-100.00,NNE,30,9.0,16.0,68,0.00,,,0.07,0.000000,,2013-11-24 13:02:00,
2013-11-24 07:42:00,33.0,23.0,-100.00,NE,36,9.0,14.0,66,0.00,,,0.07,1.000000,,2013-11-24 13:42:00,
2013-11-24 07:52:00,33.0,23.0,-100.00,NE,36,9.0,14.0,66,0.00,,,0.07,1.000000,,2013-11-24 13:52:00,
2013-11-24 08:01:00,33.0,23.0,-100.00,NE,36,9.0,14.0,66,0.00,,,0.07,1.000000,,2013-11-24 14:01:00,
2013-11-24 08:42:00,33.0,21.0,-100.00,NE,36,9.0,16.0,62,0.00,,,0.07,28.000000,,2013-11-24 14:42:00,
2013-11-24 08:53:00,33.0,21.0,-100.00,NE,36,9.0,16.0,62,0.00,,,0.07,28.000000,,2013-11-24 14:53:00,
2013-11-24 09:02:00,33.0,21.0,-100.00,NE,36,9.0,16.0,62,0.00,,,0.07,28.000000,,2013-11-24 15:02:00,
2013-11-24 09:44:00,33.0,19.0,-100.00,NE,37,9.0,16.0,56,0.00,,,0.07,64.000000,,2013-11-24 15:44:00,
2013-11-24 09:53:00,33.0,19.0,-100.00,NE,37,9.0,16.0,56,0.00,,,0.07,64.000000,,2013-11-24 15:53:00,
2013-11-24 10:03:00,33.0,19.0,-100.00,NE,37,9.0,16.0,56,0.00,,,0.07,64.000000,,2013-11-24 16:03:00,
2013-11-24 10:43:00,35.0,21.0,-100.00,NE,38,10.0,16.0,56,0.00,,,-99.99,123.000000,,2013-11-24 16:43:00,
2013-11-24 10:53:00,35.0,21.0,-100.00,NE,38,10.0,16.0,56,0.00,,,-99.99,123.000000,,2013-11-24 16:53:00,
2013-11-24 11:02:00,35.0,21.0,-100.00,NE,38,10.0,16.0,56,0.00,,,-99.99,123.000000,,2013-11-24 17:02:00,
2013-11-24 11:43:00,35.0,20.0,-100.00,NNE,25,7.0,17.0,54,0.00,,,0.05,123.000000,,2013-11-24 17:43:00,
2013-11-24 11:52:00,35.0,20.0,-100.00,NNE,25,7.0,17.0,54,0.00,,,0.05,123.000000,,2013-11-24 17:52:00,
2013-11-24 12:02:00,35.0,20.0,-100.00,NNE,25,7.0,17.0,54,0.00,,,0.05,123.000000,,2013-11-24 18:02:00,
2013-11-24 12:42:00,35.0,21.0,-100.00,North,355,5.0,12.0,56,0.00,,,0.02,77.000000,,2013-11-24 18:42:00,
2013-11-24 12:53:00,35.0,21.0,-100.00,North,355,5.0,12.0,56,0.00,,,0.02,77.000000,,2013-11-24 18:53:00,
2013-11-24 13:02:00,35.0,21.0,-100.00,North,355,5.0,12.0,56,0.00,,,0.02,77.000000,,2013-11-24 19:02:00,
2013-11-24 13:42:00,34.0,22.0,-100.00,NNE,24,6.0,12.0,61,0.00,,,0.01,82.000000,,2013-11-24 19:42:00,
2013-11-24 13:52:00,34.0,22.0,-100.00,NNE,24,6.0,12.0,61,0.00,,,0.01,82.000000,,2013-11-24 19:52:00,
2013-11-24 14:02:00,34.0,22.0,-100.00,NNE,24,6.0,12.0,61,0.00,,,0.01,82.000000,,2013-11-24 20:02:00,
2013-11-24 14:42:00,35.0,23.0,-100.00,NE,45,8.0,13.0,60,0.00,,,0.00,109.000000,,2013-11-24 20:42:00,
2013-11-24 14:52:00,35.0,23.0,-100.00,NE,45,8.0,13.0,60,0.00,,,0.00,109.000000,,2013-11-24 20:52:00,
2013-11-24 15:02:00,35.0,23.0,-100.00,NE,45,8.0,13.0,60,0.00,,,0.00,109.000000,,2013-11-24 21:02:00,
2013-11-24 15:43:00,35.0,22.0,-100.00,NE,44,7.0,13.0,59,0.00,,,0.00,113.000000,,2013-11-24 21:43:00,
2013-11-24 15:54:00,35.0,22.0,-100.00,NE,44,7.0,13.0,59,0.00,,,0.00,113.000000,,2013-11-24 21:54:00,
2013-11-24 16:03:00,35.0,22.0,-100.00,NE,44,7.0,13.0,59,0.00,,,0.00,113.000000,,2013-11-24 22:03:00,
2013-11-24 16:43:00,35.0,23.0,-100.00,NE,37,7.0,11.0,60,0.00,,,0.00,83.000000,,2013-11-24 22:43:00,
2013-11-24 16:53:00,35.0,23.0,-100.00,NE,37,7.0,11.0,60,0.00,,,0.00,83.000000,,2013-11-24 22:53:00,
2013-11-24 17:02:00,35.0,23.0,-100.00,NE,37,7.0,11.0,60,0.00,,,0.00,83.000000,,2013-11-24 23:02:00,
2013-11-24 17:42:00,35.0,23.0,-100.00,NE,48,7.0,14.0,60,0.00,,,0.00,38.000000,,2013-11-24 23:42:00,
2013-11-24 17:52:00,35.0,23.0,-100.00,NE,48,7.0,14.0,60,0.00,,,0.00,38.000000,,2013-11-24 23:52:00,
2013-11-24 18:02:00,35.0,23.0,-100.00,NE,48,7.0,14.0,60,0.00,,,0.00,38.000000,,2013-11-25 00:02:00,
2013-11-24 18:42:00,33.0,23.0,-100.00,NE,46,5.0,12.0,66,0.01,,,0.01,2.000000,,2013-11-25 00:42:00,
2013-11-24 18:52:00,33.0,23.0,-100.00,NE,46,5.0,12.0,66,0.01,,,0.01,2.000000,,2013-11-25 00:52:00,
2013-11-24 19:02:00,33.0,23.0,-100.00,NE,46,5.0,12.0,66,0.01,,,0.01,2.000000,,2013-11-25 01:02:00,
2013-11-24 19:42:00,33.0,28.0,-100.00,NNE,21,4.0,10.0,80,0.01,,,0.02,0.000000,,2013-11-25 01:42:00,
2013-11-24 19:53:00,33.0,28.0,-100.00,NNE,21,4.0,10.0,80,0.01,,,0.02,0.000000,,2013-11-25 01:53:00,
2013-11-24 20:01:00,33.0,28.0,-100.00,NNE,21,4.0,10.0,80,0.01,,,0.02,0.000000,,2013-11-25 02:01:00,
2013-11-24 20:43:00,33.0,28.0,-100.00,ENE,57,3.0,5.0,83,0.00,,,0.02,0.000000,,2013-11-25 02:43:00,
2013-11-24 20:52:00,33.0,28.0,-100.00,ENE,57,3.0,5.0,83,0.00,,,0.02,0.000000,,2013-11-25 02:52:00,
2013-11-24 21:02:00,33.0,28.0,-100.00,ENE,57,3.0,5.0,83,0.00,,,0.02,0.000000,,2013-11-25 03:02:00,
2013-11-24 21:43:00,33.0,27.0,-100.00,NE,46,4.0,8.0,79,0.00,,,0.02,0.000000,,2013-11-25 03:43:00,
2013-11-24 21:53:00,33.0,27.0,-100.00,NE,46,4.0,8.0,79,0.00,,,0.02,0.000000,,2013-11-25 03:53:00,
2013-11-24 22:03:00,33.0,27.0,-100.00,NE,46,4.0,8.0,79,0.00,,,0.02,0.000000,,2013-11-25 04:03:00,
2013-11-24 22:43:00,33.0,26.0,-100.00,NW,325,2.0,6.0,75,0.00,,,0.02,0.000000,,2013-11-25 04:43:00,
2013-11-24 22:53:00,33.0,26.0,-100.00,NW,325,2.0,6.0,75,0.00,,,0.02,0.000000,,2013-11-25 04:53:00,
2013-11-24 23:02:00,33.0,26.0,-100.00,NW,325,2.0,6.0,75,0.00,,,0.02,0.000000,,2013-11-25 05:02:00,
2013-11-24 23:43:00,33.0,26.0,-100.00,NE,51,1.0,4.0,76,0.00,,,0.02,0.000000,,2013-11-25 05:43:00,
2013-11-24 23:53:00,33.0,26.0,-100.00,NE,51,1.0,4.0,76,0.00,,,0.02,0.000000,,2013-11-25 05:53:00,